Time;durP1;ratioP1;P1;durP2;ratioP2;P2;SDS_P1;SDS_P2;PMS_P1;PMS_P2;Temp;Humidity;BMP_temperature;BMP_pressure;BME280_temperature;BME280_humidity;BME280_pressure;Samples;Min_cycle;Max_cycle;Signal;HPM_P1;HPM_P2
2021/11/11 00:00:22;;;;;;;0.52;0.52;;;;;;;11.94;78.08;101154.97;4951280;28;20035;-73
2021/11/11 00:02:48;;;;;;;12.13;0.50;;;;;;;11.85;78.39;101151.84;4948478;28;20027;-74
2021/11/11 00:05:17;;;;;;;0.47;0.47;;;;;;;11.86;78.56;101158.97;4950769;28;20054;-72
2021/11/11 00:07:42;;;;;;;0.40;0.40;;;;;;;11.90;78.03;101173.00;4921161;29;20455;-73
2021/11/11 00:10:10;;;;;;;0.50;0.50;;;;;;;11.87;78.41;101170.75;4912338;29;20032;-72
2021/11/11 00:12:36;;;;;;;0.40;0.40;;;;;;;11.86;78.93;101169.13;4932415;29;20024;-73
2021/11/11 00:15:05;;;;;;;0.40;0.40;;;;;;;11.87;78.87;101165.28;4928769;29;20034;-72
2021/11/11 00:17:31;;;;;;;0.50;0.50;;;;;;;11.86;78.73;101172.69;4935261;29;20043;-72
2021/11/11 00:19:57;;;;;;;0.90;0.90;;;;;;;11.83;78.45;101169.63;4932750;29;20088;-72
2021/11/11 00:22:25;;;;;;;0.85;0.85;;;;;;;11.81;78.76;101177.28;4915320;29;20660;-71
2021/11/11 00:24:51;;;;;;;0.65;0.65;;;;;;;11.73;78.29;101166.78;4935033;29;20130;-75
2021/11/11 00:27:19;;;;;;;0.73;0.73;;;;;;;11.66;78.48;101154.06;4938346;29;20659;-76
2021/11/11 00:29:44;;;;;;;0.60;0.60;;;;;;;11.57;78.38;101152.88;4939218;29;20019;-79
2021/11/11 00:32:10;;;;;;;0.70;0.70;;;;;;;11.57;78.35;101160.28;4930802;29;20090;-75
2021/11/11 00:34:36;;;;;;;0.52;0.52;;;;;;;11.55;78.24;101167.91;4937370;29;20032;-76
2021/11/11 00:37:02;;;;;;;1.02;1.02;;;;;;;11.49;78.26;101159.63;4903645;29;20028;-75
2021/11/11 00:39:27;;;;;;;0.80;0.80;;;;;;;11.48;78.84;101162.63;4935089;29;20110;-77
2021/11/11 00:41:53;;;;;;;0.93;0.80;;;;;;;11.44;78.92;101166.97;4933459;29;20515;-76
2021/11/11 00:44:18;;;;;;;1.38;0.80;;;;;;;11.43;78.79;101165.28;4928243;29;20390;-73
2021/11/11 00:46:44;;;;;;;0.60;0.60;;;;;;;11.42;78.45;101163.63;4917185;29;20126;-75
2021/11/11 00:49:09;;;;;;;0.30;0.30;;;;;;;11.39;78.94;101154.03;4935029;29;20099;-74
2021/11/11 00:51:37;;;;;;;0.30;0.30;;;;;;;11.43;79.28;101160.63;4915145;29;20028;-72
2021/11/11 00:54:03;;;;;;;0.30;0.30;;;;;;;11.49;79.45;101158.78;4913602;29;20063;-73
2021/11/11 00:56:28;;;;;;;0.40;0.40;;;;;;;11.49;79.14;101162.38;4908319;29;20489;-73
2021/11/11 00:58:55;;;;;;;0.45;0.45;;;;;;;11.49;78.79;101158.78;4941165;29;20039;-73
2021/11/11 01:01:21;;;;;;;0.20;0.20;;;;;;;11.50;78.91;101160.47;4931699;29;20058;-73
2021/11/11 01:03:48;;;;;;;0.20;0.20;;;;;;;11.45;79.01;101146.72;4930297;29;20059;-73
2021/11/11 01:06:15;;;;;;;0.35;0.35;;;;;;;11.45;79.08;101152.19;4917272;28;20053;-74
2021/11/11 01:08:41;;;;;;;0.43;0.43;;;;;;;11.47;78.93;101160.97;4946184;29;20034;-74
2021/11/11 01:11:07;;;;;;;0.75;0.60;;;;;;;11.46;79.13;101153.81;4935100;29;20076;-72
2021/11/11 01:13:33;;;;;;;0.60;0.60;;;;;;;11.46;79.08;101153.81;4913869;29;20078;-73
2021/11/11 01:16:00;;;;;;;0.60;0.60;;;;;;;11.42;78.30;101137.09;4948020;29;20038;-73
2021/11/11 01:18:25;;;;;;;0.47;0.47;;;;;;;11.44;78.97;101145.03;4949972;28;20106;-73
2021/11/11 01:20:51;;;;;;;0.50;0.50;;;;;;;11.47;78.70;101144.53;4916307;29;20142;-73
2021/11/11 01:23:16;;;;;;;0.40;0.40;;;;;;;11.46;78.58;101143.72;4925898;29;20046;-73
2021/11/11 01:25:42;;;;;;;0.20;0.20;;;;;;;11.46;78.51;101142.88;4914999;29;20042;-72
2021/11/11 01:28:09;;;;;;;0.50;0.50;;;;;;;11.45;78.76;101135.75;4926172;29;20055;-72
2021/11/11 01:30:36;;;;;;;0.50;0.50;;;;;;;11.44;78.56;101134.09;4951128;29;20109;-73
2021/11/11 01:33:02;;;;;;;0.55;0.55;;;;;;;11.46;78.42;101142.88;4920424;29;20062;-72
2021/11/11 01:35:28;;;;;;;0.60;0.60;;;;;;;11.45;78.57;101135.75;4926531;29;20067;-72
2021/11/11 01:37:53;;;;;;;0.57;0.57;;;;;;;11.41;78.72;101129.13;4946856;28;20031;-73
2021/11/11 01:40:19;;;;;;;0.45;0.45;;;;;;;11.45;79.03;101141.25;4947199;28;20035;-72
2021/11/11 01:42:59;;;;;;;0.40;0.40;;;;;;;11.51;79.05;101145.69;4950637;28;20370;-74
2021/11/11 01:45:26;;;;;;;0.20;0.20;;;;;;;11.50;79.21;101144.03;4948584;28;20038;-73
2021/11/11 01:47:51;;;;;;;0.20;0.20;;;;;;;11.51;79.14;101145.69;4950943;28;20458;-71
2021/11/11 01:50:19;;;;;;;0.15;0.15;;;;;;;11.52;78.94;101141.84;4952601;28;20122;-73
2021/11/11 01:52:45;;;;;;;0.47;0.47;;;;;;;11.53;78.62;101149.00;4931510;29;20016;-74
2021/11/11 01:55:11;;;;;;;0.47;0.47;;;;;;;11.53;79.00;101149.84;4949603;28;20659;-73
2021/11/11 01:57:36;;;;;;;0.32;0.32;;;;;;;11.52;78.50;101147.31;4948910;28;20031;-73
2021/11/11 02:00:09;;;;;;;0.32;0.32;;;;;;;11.62;78.73;101147.47;4949174;28;20108;-73
2021/11/11 02:02:35;;;;;;;0.50;0.50;;;;;;;11.65;79.28;101141.50;4937434;29;20355;-73
2021/11/11 02:05:01;;;;;;;0.30;0.30;;;;;;;11.64;78.61;101128.03;4954308;29;20031;-74
2021/11/11 02:07:26;;;;;;;0.10;0.10;;;;;;;11.68;78.41;101127.28;4924895;29;20048;-72
2021/11/11 02:09:52;;;;;;;0.13;0.13;;;;;;;11.69;78.62;101120.69;4930794;29;20031;-72
2021/11/11 02:12:18;;;;;;;0.20;0.20;;;;;;;11.77;78.47;101143.25;4936821;29;20032;-72
2021/11/11 02:14:44;;;;;;;0.43;0.43;;;;;;;11.78;78.38;101137.50;4911852;29;20039;-73
2021/11/11 02:17:09;;;;;;;0.28;0.28;;;;;;;11.74;78.71;101133.66;4915866;29;20433;-72
2021/11/11 02:19:35;;;;;;;0.22;0.22;;;;;;;11.78;78.62;101131.19;4899068;29;20039;-72
2021/11/11 02:22:04;;;;;;;0.40;0.40;;;;;;;11.80;78.25;101132.59;4941479;29;20019;-74
2021/11/11 02:24:31;;;;;;;0.32;0.32;;;;;;;11.80;78.65;101123.56;4918357;29;20119;-74
2021/11/11 02:26:57;;;;;;;0.40;0.40;;;;;;;11.80;78.36;101126.31;4934902;29;20059;-73
2021/11/11 02:29:23;;;;;;;0.20;0.20;;;;;;;11.81;78.66;101126.06;4919958;29;20112;-72
2021/11/11 02:31:48;;;;;;;0.43;0.43;;;;;;;11.80;78.41;101126.31;4931597;29;20028;-70
2021/11/11 02:34:18;;;;;;;0.40;0.40;;;;;;;11.77;78.50;101118.56;4920596;29;20150;-71
2021/11/11 02:36:58;;;;;;;0.57;0.57;;;;;;;11.75;78.13;101118.03;4952517;29;20038;-72
2021/11/11 02:39:29;;;;;;;0.60;0.60;;;;;;;11.71;78.34;101112.25;4943530;29;20127;-72
2021/11/11 02:41:55;;;;;;;0.90;0.90;;;;;;;11.72;78.02;101110.31;4935289;29;20725;-71
2021/11/11 02:44:21;;;;;;;0.77;0.38;;;;;;;11.68;78.48;101104.50;4915243;29;20067;-72
2021/11/11 02:46:46;;;;;;;0.35;0.35;;;;;;;11.67;78.57;101114.66;4908419;29;20036;-71
2021/11/11 02:49:12;;;;;;;0.28;0.28;;;;;;;11.66;77.97;101098.47;4934388;29;20043;-72
2021/11/11 02:51:37;;;;;;;0.40;0.40;;;;;;;11.63;78.51;101104.47;4933625;29;20038;-72
2021/11/11 02:54:03;;;;;;;0.30;0.30;;;;;;;11.52;78.42;101103.50;4941705;29;20520;-72
2021/11/11 02:56:28;;;;;;;0.50;0.50;;;;;;;11.51;77.99;101110.09;4925931;29;20477;-72
2021/11/11 02:58:54;;;;;;;0.40;0.40;;;;;;;11.46;77.93;101101.78;4944279;29;20027;-72
2021/11/11 03:01:19;;;;;;;0.70;0.70;;;;;;;11.40;78.35;101100.09;4940897;29;20126;-73
2021/11/11 03:03:46;;;;;;;0.30;0.30;;;;;;;11.34;78.65;101090.97;4943832;29;20094;-72
2021/11/11 03:06:11;;;;;;;0.30;0.28;;;;;;;11.30;78.45;101104.34;4936204;28;20067;-73
2021/11/11 03:08:37;;;;;;;0.30;0.30;;;;;;;11.31;78.09;101097.78;4923182;29;20035;-72
2021/11/11 03:11:05;;;;;;;0.30;0.30;;;;;;;11.30;78.28;101090.66;4925795;29;20042;-73
2021/11/11 03:13:30;;;;;;;0.20;0.20;;;;;;;11.33;78.51;101098.38;4921298;29;20039;-71
2021/11/11 03:15:57;;;;;;;0.20;0.20;;;;;;;11.35;78.45;101100.84;4920995;29;20027;-72
2021/11/11 03:18:22;;;;;;;0.30;0.20;;;;;;;11.35;78.32;101104.41;4940794;29;20038;-71
2021/11/11 03:20:48;;;;;;;0.30;0.30;;;;;;;11.37;78.41;101100.59;4923299;29;20039;-72
2021/11/11 03:23:14;;;;;;;0.30;0.30;;;;;;;11.35;78.30;101093.44;4935829;29;20853;-71
2021/11/11 03:25:40;;;;;;;0.30;0.30;;;;;;;11.39;78.40;101101.16;4938961;29;20040;-71
2021/11/11 03:28:07;;;;;;;0.20;0.20;;;;;;;11.38;78.29;101096.78;4939625;29;20027;-70
2021/11/11 03:30:34;;;;;;;0.20;0.20;;;;;;;11.39;77.87;101093.78;4939933;29;20035;-71
2021/11/11 03:33:01;;;;;;;0.20;0.20;;;;;;;11.41;78.05;101090.78;4938610;29;20414;-71
2021/11/11 03:35:27;;;;;;;0.20;0.20;;;;;;;11.43;78.04;101091.34;4919308;29;20470;-73
2021/11/11 03:37:54;;;;;;;0.20;0.20;;;;;;;11.46;78.22;101093.56;4940977;29;20048;-72
2021/11/11 03:40:23;;;;;;;0.30;0.30;;;;;;;11.47;77.83;101095.25;4921616;29;20053;-71
2021/11/11 03:42:50;;;;;;;0.25;0.25;;;;;;;11.49;77.93;101093.06;4939557;29;20446;-70
2021/11/11 03:45:16;;;;;;;0.30;0.30;;;;;;;11.50;78.13;101091.97;4908113;29;20039;-72
2021/11/11 03:47:43;;;;;;;0.30;0.30;;;;;;;11.49;78.34;101088.44;4935174;29;20023;-71
2021/11/11 03:50:09;;;;;;;0.20;0.20;;;;;;;11.52;78.53;101098.88;4896180;29;20034;-72
2021/11/11 03:52:35;;;;;;;0.30;0.30;;;;;;;11.53;78.28;101094.22;4936338;29;20122;-71
2021/11/11 03:55:01;;;;;;;0.20;0.20;;;;;;;11.54;77.95;101104.09;4938261;29;20537;-72
2021/11/11 03:57:27;;;;;;;0.45;0.45;;;;;;;11.52;78.48;101096.13;4934071;29;20111;-72
2021/11/11 03:59:53;;;;;;;0.60;0.60;;;;;;;11.53;78.08;101096.94;4938596;29;20146;-72
2021/11/11 04:02:23;;;;;;;0.20;0.20;;;;;;;11.54;78.35;101106.81;4922104;29;20466;-73
2021/11/11 04:04:49;;;;;;;0.20;0.20;;;;;;;11.52;77.67;101095.28;4936795;29;20347;-73
2021/11/11 04:07:14;;;;;;;0.25;0.25;;;;;;;11.48;78.29;101091.44;4953268;28;20059;-72
2021/11/11 04:09:40;;;;;;;0.30;0.30;;;;;;;11.46;78.30;101093.56;4949509;28;20452;-73
2021/11/11 04:12:06;;;;;;;0.43;0.43;;;;;;;11.42;78.13;101087.78;4923450;28;20030;-72
2021/11/11 04:14:32;;;;;;;0.32;0.30;;;;;;;11.41;78.18;101096.25;4959005;28;20043;-72
2021/11/11 04:16:58;;;;;;;0.35;0.35;;;;;;;11.34;78.06;101094.53;4944576;28;20034;-73
2021/11/11 04:19:23;;;;;;;0.30;0.30;;;;;;;11.27;77.81;101091.19;4942795;28;20038;-72
2021/11/11 04:21:49;;;;;;;0.30;0.30;;;;;;;11.26;78.28;101100.47;4955797;28;20796;-72
2021/11/11 04:24:14;;;;;;;0.30;0.30;;;;;;;11.23;77.93;101100.13;4942873;28;20056;-72
2021/11/11 04:29:29;;;;;;;0.45;0.45;;;;;;;11.11;78.11;101084.69;4960327;28;20039;-72
2021/11/11 04:32:02;;;;;;;0.40;0.40;;;;;;;11.13;78.33;101100.84;4942295;28;20037;-72
2021/11/11 04:34:31;;;;;;;0.55;0.55;;;;;;;11.12;78.55;101101.91;4941525;28;20038;-72
2021/11/11 04:37:42;;;;;;;0.63;0.40;;;;;;;11.08;78.21;101098.03;4941511;28;20039;-73
2021/11/11 05:05:43;;;;;;;0.45;0.45;;;;;;;10.82;78.24;101111.34;4951922;28;20110;-70
2021/11/11 05:08:08;;;;;;;0.40;0.40;;;;;;;10.76;78.45;101104.97;4961131;28;20109;-69
2021/11/11 05:10:34;;;;;;;0.28;0.28;;;;;;;10.72;78.32;101111.19;4942188;28;20031;-69
2021/11/11 05:13:00;;;;;;;0.30;0.30;;;;;;;10.64;77.88;101116.03;4957600;28;20027;-71
2021/11/11 05:15:26;;;;;;;0.45;0.35;;;;;;;10.56;78.03;101105.50;4938516;28;20034;-71
2021/11/11 05:17:52;;;;;;;0.40;0.40;;;;;;;10.52;77.95;101106.25;4960519;28;20461;-70
2021/11/11 05:20:19;;;;;;;0.40;0.40;;;;;;;10.46;77.85;101110.78;4941652;28;20041;-70
2021/11/11 05:22:45;;;;;;;0.30;0.30;;;;;;;10.40;78.32;101114.53;4937831;28;20038;-70
2021/11/11 05:25:13;;;;;;;0.43;0.43;;;;;;;10.33;78.21;101113.81;4952046;28;20033;-71
2021/11/11 05:27:41;;;;;;;0.40;0.40;;;;;;;10.27;78.06;101116.47;4938856;28;20046;-70
2021/11/11 05:30:08;;;;;;;0.20;0.20;;;;;;;10.19;78.24;101103.22;4959842;28;20042;-70
2021/11/11 05:32:34;;;;;;;0.30;0.30;;;;;;;10.15;78.37;101110.25;4955744;28;20373;-71
2021/11/11 05:35:01;;;;;;;0.20;0.20;;;;;;;10.09;78.28;101109.31;4934514;28;20039;-70
2021/11/11 05:37:27;;;;;;;0.30;0.30;;;;;;;10.03;78.58;101104.00;4938228;28;20034;-70
2021/11/11 05:39:52;;;;;;;0.30;0.22;;;;;;;10.00;78.42;101104.50;4925294;28;20035;-70
2021/11/11 05:42:18;;;;;;;0.10;0.10;;;;;;;9.96;78.38;101106.91;4937059;28;20035;-70
2021/11/11 05:44:43;;;;;;;0.32;0.32;;;;;;;9.93;78.41;101119.13;4905752;28;20039;-71
2021/11/11 05:47:09;;;;;;;0.20;0.20;;;;;;;9.91;78.43;101120.44;4932574;28;20200;-71
2021/11/11 05:49:34;;;;;;;0.20;0.20;;;;;;;9.87;78.44;101106.47;4934931;28;20059;-70
2021/11/11 05:52:00;;;;;;;0.20;0.20;;;;;;;9.80;78.74;101100.31;4935668;28;20035;-70
2021/11/11 05:54:26;;;;;;;0.25;0.20;;;;;;;9.79;78.27;101110.41;4952149;28;20054;-71
2021/11/11 05:56:51;;;;;;;0.20;0.20;;;;;;;9.79;78.45;101115.88;4909331;28;20035;-71
2021/11/11 05:59:17;;;;;;;0.20;0.20;;;;;;;9.76;78.15;101115.53;4936894;28;20039;-70
2021/11/11 06:01:43;;;;;;;0.20;0.20;;;;;;;9.74;78.63;101112.22;4958285;28;20027;-70
2021/11/11 06:04:08;;;;;;;0.20;0.20;;;;;;;9.73;78.36;101114.13;4957046;28;20035;-71
2021/11/11 06:06:34;;;;;;;0.20;0.20;;;;;;;9.73;78.43;101110.56;4934836;28;20449;-73
2021/11/11 06:08:59;;;;;;;0.03;0.03;;;;;;;9.72;78.70;101109.72;4941036;28;20035;-71
2021/11/11 06:11:26;;;;;;;0.10;0.10;;;;;;;9.69;78.65;101109.38;4930855;28;20058;-70
2021/11/11 06:13:51;;;;;;;0.30;0.30;;;;;;;9.73;78.59;101116.03;4958115;28;20605;-70
2021/11/11 06:16:17;;;;;;;0.55;0.38;;;;;;;9.73;78.46;101113.28;4939102;28;20035;-70
2021/11/11 06:18:42;;;;;;;0.40;0.40;;;;;;;9.69;78.64;101109.38;4957735;28;20545;-70
2021/11/11 06:21:10;;;;;;;0.20;0.20;;;;;;;9.65;78.21;101114.53;4940138;28;20031;-71
2021/11/11 06:23:36;;;;;;;0.20;0.20;;;;;;;9.63;78.69;101116.66;4947850;28;20019;-70
2021/11/11 06:26:05;;;;;;;0.10;0.10;;;;;;;9.60;78.64;101120.69;4954275;28;20424;-69
2021/11/11 06:28:31;;;;;;;0.20;0.10;;;;;;;9.59;78.80;101120.94;4930344;28;20126;-69
2021/11/11 06:30:57;;;;;;;0.10;0.10;;;;;;;9.56;78.60;101116.81;4934381;28;20142;-70
2021/11/11 06:33:22;;;;;;;0.13;0.13;;;;;;;9.54;78.65;101124.38;4955755;28;20030;-69
2021/11/11 06:35:48;;;;;;;0.03;0.03;;;;;;;9.52;78.31;101123.81;4957681;28;20018;-70
2021/11/11 06:38:14;;;;;;;0.10;0.10;;;;;;;9.49;78.68;101116.13;4953752;28;20373;-70
2021/11/11 06:40:40;;;;;;;0.10;0.10;;;;;;;9.46;78.56;101110.28;4924494;28;20125;-70
2021/11/11 06:43:06;;;;;;;0.00;0.00;;;;;;;9.40;78.79;101117.53;4928514;28;20062;-69
2021/11/11 06:45:38;;;;;;;0.00;0.00;;;;;;;9.41;78.58;101113.75;4939048;28;20038;-70
2021/11/11 06:48:04;;;;;;;0.05;0.05;;;;;;;9.38;79.03;101117.78;4927420;28;20040;-69
2021/11/11 06:50:30;;;;;;;0.10;0.10;;;;;;;9.37;78.74;101120.75;4959040;28;20051;-70
2021/11/11 06:52:55;;;;;;;0.10;0.10;;;;;;;9.36;78.70;101121.81;4959311;28;20034;-71
2021/11/11 06:55:21;;;;;;;0.10;0.10;;;;;;;9.37;78.62;101123.47;4935101;28;20027;-75
2021/11/11 06:57:47;;;;;;;0.10;0.10;;;;;;;9.36;78.42;101125.41;4947280;28;20034;-73
2021/11/11 07:00:14;;;;;;;0.08;0.00;;;;;;;9.36;78.95;101128.13;4923087;28;20035;-73
2021/11/11 07:02:39;;;;;;;0.10;0.10;;;;;;;9.37;78.75;101123.47;4936727;28;20481;-73
2021/11/11 07:05:05;;;;;;;0.10;0.10;;;;;;;9.37;79.02;101126.22;4950077;28;20086;-73
2021/11/11 07:07:31;;;;;;;0.20;0.10;;;;;;;9.37;78.66;101128.94;4938914;28;20474;-72
2021/11/11 07:09:57;;;;;;;0.00;0.00;;;;;;;9.34;78.89;101129.44;4909230;29;20036;-73
2021/11/11 07:12:23;;;;;;;0.10;0.10;;;;;;;9.35;79.36;101139.28;4934692;29;20032;-72
2021/11/11 07:14:49;;;;;;;0.00;0.00;;;;;;;9.42;78.81;101142.72;4901201;29;20095;-71
2021/11/11 07:17:15;;;;;;;0.10;0.10;;;;;;;9.43;78.94;101144.34;4901143;29;20478;-72
2021/11/11 07:19:41;;;;;;;0.10;0.10;;;;;;;9.43;79.04;101147.94;4911697;29;20028;-73
2021/11/11 07:22:07;;;;;;;0.20;0.20;;;;;;;9.45;79.22;101150.41;4908694;29;20548;-71
2021/11/11 07:24:33;;;;;;;0.10;0.10;;;;;;;9.43;78.94;101145.19;4904559;29;20036;-72
2021/11/11 07:26:59;;;;;;;0.03;0.03;;;;;;;9.41;78.63;101135.59;4925185;29;20032;-72
2021/11/11 07:29:25;;;;;;;0.10;0.10;;;;;;;9.42;78.52;101138.06;4901414;29;20040;-71
2021/11/11 07:31:52;;;;;;;0.10;0.10;;;;;;;9.45;78.58;101147.69;4902511;29;20028;-71
2021/11/11 07:34:18;;;;;;;0.10;0.10;;;;;;;9.45;78.45;101142.22;4908305;29;20070;-71
2021/11/11 07:36:45;;;;;;;0.10;0.10;;;;;;;9.43;78.96;101152.53;4920637;29;20362;-72
2021/11/11 07:39:11;;;;;;;0.10;0.10;;;;;;;9.45;78.68;101150.41;4936043;29;20038;-72
2021/11/11 07:41:37;;;;;;;0.13;0.10;;;;;;;9.50;78.54;101161.44;4915683;29;20028;-71
2021/11/11 07:44:03;;;;;;;0.20;0.20;;;;;;;9.50;78.68;101158.69;4932558;29;20497;-72
2021/11/11 07:46:30;;;;;;;0.20;0.17;;;;;;;9.53;78.97;101176.50;4910819;29;20027;-71
2021/11/11 07:48:55;;;;;;;2.15;0.20;;;;;;;9.55;78.57;101177.94;4913264;29;20080;-71
2021/11/11 07:51:21;;;;;;;0.20;0.20;;;;;;;9.54;78.95;101176.28;4923897;29;20019;-71
2021/11/11 07:53:46;;;;;;;0.13;0.13;;;;;;;9.57;78.75;101167.59;4933207;29;20026;-72
2021/11/11 07:56:12;;;;;;;0.10;0.10;;;;;;;9.60;78.73;101172.56;4917809;29;20024;-71
2021/11/11 07:58:37;;;;;;;0.10;0.10;;;;;;;9.68;78.91;101170.53;4883525;29;20596;-72
2021/11/11 08:01:03;;;;;;;0.00;0.00;;;;;;;9.76;78.56;101170.16;4930770;29;20079;-73
2021/11/11 08:03:28;;;;;;;0.10;0.10;;;;;;;9.81;79.00;101172.97;4930954;29;21008;-71
2021/11/11 08:05:55;;;;;;;0.00;0.00;;;;;;;9.90;78.83;101176.16;4935157;28;20063;-72
2021/11/11 08:08:24;;;;;;;0.20;0.20;;;;;;;9.95;78.74;101168.91;4922870;29;20028;-76
2021/11/11 08:11:10;;;;;;;0.20;0.20;;;;;;;10.08;79.07;101172.44;4919119;29;20123;-76
2021/11/11 08:13:39;;;;;;;0.10;0.10;;;;;;;10.29;78.42;101168.16;4932499;29;20028;-74
2021/11/11 08:16:07;;;;;;;0.10;0.10;;;;;;;10.41;78.40;101171.69;4911003;29;20036;-76
2021/11/11 08:18:33;;;;;;;0.08;0.08;;;;;;;10.56;78.28;101165.66;4932865;29;20032;-75
2021/11/11 08:21:02;;;;;;;0.20;0.20;;;;;;;10.78;77.93;101182.16;4930097;29;20068;-74
2021/11/11 08:23:27;;;;;;;0.22;0.13;;;;;;;10.88;77.50;101177.91;4914780;29;20016;-74
2021/11/11 08:25:53;;;;;;;0.10;0.10;;;;;;;10.98;77.34;101181.66;4915142;29;20027;-75
2021/11/11 08:28:21;;;;;;;0.10;0.10;;;;;;;11.08;77.66;101174.66;4932824;29;20023;-74
2021/11/11 08:30:49;;;;;;;0.10;0.00;;;;;;;11.16;77.18;101171.50;4916611;29;20030;-75
2021/11/11 08:33:15;;;;;;;0.10;0.10;;;;;;;11.30;77.11;101189.25;4898962;29;20415;-75
2021/11/11 08:35:43;;;;;;;0.10;0.10;;;;;;;11.33;76.90;101187.88;4909268;29;20027;-74
2021/11/11 08:38:10;;;;;;;0.08;0.08;;;;;;;11.43;77.06;101181.72;4916986;29;20031;-76
2021/11/11 08:40:38;;;;;;;0.03;0.03;;;;;;;11.51;76.99;101189.50;4916544;29;20538;-76
2021/11/11 08:43:16;;;;;;;;;;;;;;;;;;;;;
2021/11/11 08:45:42;;;;;;;0.00;0.00;;;;;;;11.48;76.96;101176.31;4934157;29;20067;-75
2021/11/11 08:48:08;;;;;;;0.10;0.10;;;;;;;11.60;77.01;101179.75;4934165;29;20106;-77
2021/11/11 08:50:36;;;;;;;0.10;0.10;;;;;;;11.70;77.02;101188.09;4915019;29;20031;-77
2021/11/11 08:53:08;;;;;;;0.00;0.00;;;;;;;11.84;76.76;101182.22;4934249;29;20028;-75
2021/11/11 08:55:51;;;;;;;0.00;0.00;;;;;;;11.98;76.62;101172.56;4920204;29;20103;-74
2021/11/11 08:58:30;;;;;;;;;;;;;;;;;;;;;
2021/11/11 09:01:04;;;;;;;0.13;0.13;;;;;;;12.29;76.26;101161.91;4936983;29;20034;-75
2021/11/11 09:03:29;;;;;;;0.30;0.30;;;;;;;12.51;76.06;101170.09;4925406;29;20027;-73
2021/11/11 09:06:02;;;;;;;0.30;0.30;;;;;;;12.81;75.45;101196.13;4936660;28;20037;-74
2021/11/11 09:08:29;;;;;;;0.13;0.13;;;;;;;12.91;75.35;101195.38;4939417;29;20126;-74
2021/11/11 09:10:56;;;;;;;0.20;0.20;;;;;;;13.07;75.25;101199.88;4937673;29;20035;-74
2021/11/11 09:13:22;;;;;;;0.10;0.10;;;;;;;13.19;75.33;101190.63;4937630;29;20027;-76
2021/11/11 09:15:48;;;;;;;0.08;0.08;;;;;;;13.20;75.31;101170.28;4958041;28;20027;-76
2021/11/11 09:18:13;;;;;;;0.43;0.40;;;;;;;13.41;74.27;101176.78;4920515;29;20153;-76
2021/11/11 09:20:39;;;;;;;0.30;0.30;;;;;;;13.61;74.30;101192.56;4922413;29;20055;-76
2021/11/11 09:23:19;;;;;;;;;;;;;;;;;;;;;
2021/11/11 09:25:45;;;;;;;0.30;0.30;;;;;;;14.47;73.99;101177.38;4954865;29;20023;-75
2021/11/11 09:28:14;;;;;;;0.30;0.30;;;;;;;15.05;73.41;101187.28;4917614;28;20122;-77
2021/11/11 09:30:59;;;;;;;0.35;0.35;;;;;;;15.40;72.27;101166.28;4937823;29;20070;-76
2021/11/11 09:33:27;;;;;;;0.75;0.75;;;;;;;15.50;71.41;101155.22;4946594;28;20027;-77
2021/11/11 09:35:53;;;;;;;0.30;0.30;;;;;;;15.62;70.76;101189.91;4942546;29;20102;-77
2021/11/11 09:38:20;;;;;;;0.30;0.30;;;;;;;15.54;71.45;101178.38;4957737;29;21590;-77
2021/11/11 09:40:47;;;;;;;0.90;0.90;;;;;;;15.71;70.26;101177.19;4937425;29;20086;-75
2021/11/11 09:43:35;;;;;;;0.63;0.63;;;;;;;15.77;69.73;101184.34;4960365;29;20022;-76
2021/11/11 09:46:24;;;;;;;0.50;0.50;;;;;;;15.64;70.33;101163.72;4961099;28;20032;-76
2021/11/11 09:48:57;;;;;;;0.30;0.30;;;;;;;15.69;70.35;101173.91;4963069;29;20758;-76
2021/11/11 09:51:44;;;;;;;;;;;;;;;;;;;;;
2021/11/11 09:59:30;;;;;;;0.60;0.60;;;;;;;15.80;68.91;101191.25;4963835;28;20055;-75
2021/11/11 10:01:59;;;;;;;0.77;0.77;;;;;;;15.73;68.68;101190.72;4949091;29;20086;-76
2021/11/11 10:04:28;;;;;;;0.68;0.68;;;;;;;15.62;68.39;101184.41;4945318;29;20110;-75
2021/11/11 10:06:59;;;;;;;1.55;0.93;;;;;;;15.80;68.85;101189.34;4960172;28;20098;-74
2021/11/11 10:09:25;;;;;;;0.82;0.82;;;;;;;15.91;67.93;101169.97;4944394;29;20071;-74
2021/11/11 10:11:54;;;;;;;1.08;1.00;;;;;;;16.07;67.65;101173.47;4946042;29;20466;-74
2021/11/11 10:14:22;;;;;;;1.23;1.23;;;;;;;15.87;67.13;101169.69;4948636;28;20035;-74
2021/11/11 10:17:01;;;;;;;0.60;0.60;;;;;;;15.80;67.52;101180.22;4943600;29;20027;-75
2021/11/11 10:19:49;;;;;;;0.43;0.38;;;;;;;15.74;67.47;101182.16;4943610;29;20450;-75
2021/11/11 10:22:22;;;;;;;0.75;0.75;;;;;;;15.55;67.77;101176.44;4959197;28;20114;-75
2021/11/11 10:24:56;;;;;;;0.77;0.77;;;;;;;15.54;67.74;101189.38;4941876;29;20461;-72
2021/11/11 10:27:31;;;;;;;0.40;0.40;;;;;;;15.55;68.26;101184.72;4949080;29;20390;-75
2021/11/11 10:30:05;;;;;;;0.35;0.35;;;;;;;15.58;68.23;101199.84;4940118;28;20487;-74
2021/11/11 10:32:39;;;;;;;0.30;0.30;;;;;;;15.65;68.49;101192.09;4955160;29;20039;-74
2021/11/11 10:35:26;;;;;;;2.10;0.50;;;;;;;15.88;68.48;101199.75;4946935;28;20034;-73
2021/11/11 10:37:57;;;;;;;0.50;0.50;;;;;;;15.93;67.75;101189.81;4928492;29;20481;-75
2021/11/11 10:40:37;;;;;;;;;;;;;;;;;;;;;
2021/11/11 10:43:09;;;;;;;0.47;0.47;;;;;;;16.31;67.25;101184.63;4954997;29;20022;-74
2021/11/11 10:45:40;;;;;;;0.30;0.30;;;;;;;16.52;67.06;101183.38;4954069;28;20474;-73
2021/11/11 10:48:09;;;;;;;0.10;0.10;;;;;;;16.92;68.07;101188.88;4944102;28;20027;-73
2021/11/11 10:50:40;;;;;;;0.55;0.55;;;;;;;17.32;66.24;101180.47;4939535;28;20046;-74
2021/11/11 10:53:10;;;;;;;0.30;0.20;;;;;;;17.71;65.38;101182.22;4953452;28;20035;-72
2021/11/11 10:55:47;;;;;;;0.25;0.20;;;;;;;17.95;65.22;101183.03;4937479;29;20035;-72
2021/11/11 10:58:20;;;;;;;0.30;0.20;;;;;;;18.15;65.11;101181.13;4934512;29;20504;-75
2021/11/11 11:00:45;;;;;;;0.10;0.10;;;;;;;18.46;64.87;101183.44;4934224;29;20535;-72
2021/11/11 11:03:27;;;;;;;0.20;0.20;;;;;;;18.98;64.84;101175.94;4951697;29;20090;-73
2021/11/11 11:06:08;;;;;;;0.25;0.25;;;;;;;19.56;62.53;101186.78;4958266;28;20027;-74
2021/11/11 11:08:40;;;;;;;0.20;0.20;;;;;;;19.92;61.59;101184.09;4909451;29;20063;-71
2021/11/11 11:11:14;;;;;;;0.20;0.20;;;;;;;20.43;61.04;101189.59;4936885;29;20036;-72
2021/11/11 11:13:45;;;;;;;0.20;0.20;;;;;;;20.79;58.21;101180.44;4934100;29;20039;-72
2021/11/11 11:16:13;;;;;;;0.20;0.20;;;;;;;21.01;57.40;101185.97;4916655;29;20063;-73
2021/11/11 11:18:44;;;;;;;1.45;0.30;;;;;;;21.67;58.74;101181.69;4937551;29;20557;-73
2021/11/11 11:21:16;;;;;;;0.15;0.15;;;;;;;23.05;57.88;101176.44;4924683;29;20024;-76
2021/11/11 11:23:43;;;;;;;0.20;0.20;;;;;;;23.87;52.30;101169.88;4935891;29;20047;-74
2021/11/11 11:26:20;;;;;;;0.20;0.20;;;;;;;23.76;50.49;101168.59;4939778;29;20073;-74
2021/11/11 11:28:59;;;;;;;0.40;0.40;;;;;;;23.81;49.84;101177.59;4938710;29;20111;-71
2021/11/11 11:31:27;;;;;;;0.20;0.20;;;;;;;23.20;49.55;101163.16;4926911;29;20115;-73
2021/11/11 11:33:53;;;;;;;0.20;0.20;;;;;;;22.74;51.14;101158.00;4945462;29;20031;-72
2021/11/11 11:36:41;;;;;;;0.30;0.30;;;;;;;22.25;49.96;101155.41;4933852;29;20047;-73
2021/11/11 11:39:08;;;;;;;0.20;0.20;;;;;;;21.60;50.40;101157.13;4940760;29;20027;-73
2021/11/11 11:41:42;;;;;;;0.30;0.22;;;;;;;20.99;51.10;101154.88;4932369;29;20095;-71
2021/11/11 11:44:22;;;;;;;0.20;0.20;;;;;;;20.35;51.79;101150.34;4939636;29;20034;-72
2021/11/11 11:47:15;;;;;;;0.40;0.40;;;;;;;19.83;52.60;101149.88;4936595;29;20051;-73
2021/11/11 11:49:43;;;;;;;0.30;0.30;;;;;;;19.30;53.81;101138.19;4917057;29;20350;-71
2021/11/11 11:52:11;;;;;;;0.40;0.40;;;;;;;19.06;55.18;101140.34;4911836;29;20028;-73
2021/11/11 11:57:14;;;;;;;0.30;0.30;;;;;;;18.56;56.02;101135.34;4936316;29;20024;-86
2021/11/11 11:59:44;;;;;;;0.22;0.22;;;;;;;18.45;56.66;101140.25;4900019;29;20027;-74
2021/11/11 12:02:22;;;;;;;0.35;0.35;;;;;;;18.27;56.55;101139.97;4934291;29;20035;-74
2021/11/11 12:05:08;;;;;;;0.30;0.30;;;;;;;18.04;56.86;101127.03;4918407;29;20050;-72
2021/11/11 12:40:14;;;;;;;0.82;0.60;;;;;;;17.44;58.70;101092.41;4949017;28;20038;-72
2021/11/11 12:42:45;;;;;;;0.52;0.40;;;;;;;17.17;59.09;101091.09;4935911;29;20057;-72
2021/11/11 12:45:13;;;;;;;0.52;0.52;;;;;;;16.90;59.29;101092.47;4951962;28;20438;-73
2021/11/11 12:47:52;;;;;;;0.95;0.95;;;;;;;16.71;60.15;101094.31;4938028;28;20022;-72